Time;durP1;ratioP1;P1;durP2;ratioP2;P2;SDS_P1;SDS_P2;PMS_P1;PMS_P2;Temp;Humidity;BMP_temperature;BMP_pressure;BME280_temperature;BME280_humidity;BME280_pressure;Samples;Min_cycle;Max_cycle;Signal;HPM_P1;HPM_P2
2021/08/11 00:01:42;;;;;;;4.78;3.17;;;20.80;63.40;;;;;;4903330;29;20024;-86
2021/08/11 00:04:08;;;;;;;4.03;2.70;;;20.80;63.40;;;;;;4934560;29;20040;-86
2021/08/11 00:06:34;;;;;;;4.63;2.85;;;20.80;63.50;;;;;;4919206;29;20087;-86
2021/08/11 00:09:02;;;;;;;4.07;2.70;;;20.80;63.50;;;;;;4903265;29;20036;-85
2021/08/11 00:11:29;;;;;;;4.22;2.67;;;20.70;63.40;;;;;;4903364;29;20067;-86
2021/08/11 00:13:55;;;;;;;4.25;2.80;;;20.70;63.50;;;;;;4934567;29;20024;-86
2021/08/11 00:16:20;;;;;;;5.00;2.95;;;20.70;63.50;;;;;;4902940;29;20030;-85
2021/08/11 00:18:46;;;;;;;4.25;2.80;;;20.60;63.50;;;;;;4920362;29;20373;-86
2021/08/11 00:21:12;;;;;;;3.67;2.90;;;20.60;63.50;;;;;;4863165;29;1157249;-86
2021/08/11 00:23:38;;;;;;;3.92;2.97;;;20.60;63.60;;;;;;4903926;29;20063;-86
2021/08/11 00:26:04;;;;;;;3.63;2.80;;;20.60;63.60;;;;;;4919442;29;20036;-86
2021/08/11 00:28:30;;;;;;;4.55;3.33;;;20.50;63.60;;;;;;4919955;29;20528;-86
2021/08/11 00:30:56;;;;;;;4.50;2.92;;;20.50;63.60;;;;;;4919337;29;20028;-85
2021/08/11 00:33:22;;;;;;;3.90;2.78;;;20.50;63.70;;;;;;4903729;29;20024;-84
2021/08/11 00:35:49;;;;;;;4.63;3.08;;;20.40;63.60;;;;;;4903581;29;20060;-86
2021/08/11 00:38:14;;;;;;;4.43;3.17;;;20.40;63.70;;;;;;4903509;29;20063;-87
2021/08/11 00:40:41;;;;;;;4.43;3.17;;;20.40;63.70;;;;;;4903334;29;20036;-85
2021/08/11 00:43:08;;;;;;;4.63;3.03;;;20.30;63.70;;;;;;4935240;29;20036;-85
2021/08/11 00:45:37;;;;;;;3.53;2.60;;;20.30;63.70;;;;;;4919479;29;20542;-85
2021/08/11 00:48:06;;;;;;;4.20;2.95;;;20.30;63.70;;;;;;4920126;29;20024;-85
2021/08/11 00:50:32;;;;;;;4.55;3.20;;;20.30;63.80;;;;;;4903424;29;20032;-85
2021/08/11 00:52:59;;;;;;;4.47;3.20;;;20.20;63.70;;;;;;4903567;29;20496;-85
2021/08/11 00:55:26;;;;;;;4.22;3.00;;;20.20;63.80;;;;;;4919180;29;20036;-86
2021/08/11 00:57:54;;;;;;;4.70;3.17;;;20.20;63.80;;;;;;4903652;29;20033;-86
2021/08/11 01:00:28;;;;;;;4.15;3.05;;;20.20;63.90;;;;;;4919689;29;20032;-85
2021/08/11 01:02:55;;;;;;;5.13;3.15;;;20.20;63.90;;;;;;4903516;29;20036;-85
2021/08/11 01:05:21;;;;;;;4.43;3.10;;;20.10;63.90;;;;;;4918871;29;20042;-86
2021/08/11 01:07:51;;;;;;;4.40;3.30;;;20.10;63.90;;;;;;4934666;29;20543;-86
2021/08/11 01:10:18;;;;;;;4.97;3.28;;;20.10;64.00;;;;;;4935014;29;20040;-85
2021/08/11 01:12:47;;;;;;;4.07;3.00;;;20.10;64.00;;;;;;4903607;29;20035;-86
2021/08/11 01:15:13;;;;;;;4.43;3.05;;;20.00;64.00;;;;;;4918922;29;20488;-85
2021/08/11 01:17:39;;;;;;;4.20;3.13;;;20.00;64.00;;;;;;4903004;29;20465;-85
2021/08/11 01:20:06;;;;;;;4.60;3.20;;;20.00;64.00;;;;;;4918535;29;20118;-86
2021/08/11 01:22:47;;;;;;;4.47;3.13;;;19.90;64.00;;;;;;4918297;29;20044;-86
2021/08/11 01:25:41;;;;;;;4.90;3.10;;;19.90;64.10;;;;;;4902249;29;20036;-85
2021/08/11 01:28:19;;;;;;;4.35;3.08;;;19.90;64.10;;;;;;4919314;29;20040;-86
2021/08/11 01:31:03;;;;;;;5.20;3.28;;;19.90;64.10;;;;;;4919174;29;20036;-85
2021/08/11 01:33:49;;;;;;;5.00;3.17;;;19.80;64.20;;;;;;4934314;29;20036;-86
2021/08/11 01:36:39;;;;;;;4.50;3.28;;;19.80;64.20;;;;;;4919163;29;20032;-85
2021/08/11 01:39:27;;;;;;;3.67;2.90;;;19.80;64.30;;;;;;4902457;29;20071;-86
2021/08/11 01:41:59;;;;;;;4.70;3.20;;;19.70;64.20;;;;;;4918596;29;20039;-85
2021/08/11 01:44:32;;;;;;;4.38;3.20;;;19.70;64.30;;;;;;4918369;29;20032;-86
2021/08/11 01:47:02;;;;;;;4.90;3.25;;;19.70;64.30;;;;;;4917880;29;20138;-86
2021/08/11 01:49:31;;;;;;;4.50;3.20;;;19.60;64.30;;;;;;4918868;29;20036;-86
2021/08/11 01:52:00;;;;;;;4.65;3.28;;;19.60;64.40;;;;;;4902873;29;20024;-86
2021/08/11 01:54:27;;;;;;;4.32;3.10;;;19.60;64.40;;;;;;4901906;29;20032;-86
2021/08/11 01:56:56;;;;;;;4.65;3.33;;;19.60;64.40;;;;;;4902289;29;20350;-87
2021/08/11 01:59:22;;;;;;;4.30;3.03;;;19.60;64.50;;;;;;4902963;29;20040;-86
2021/08/11 02:01:49;;;;;;;4.55;3.42;;;19.50;64.40;;;;;;4917580;29;20026;-85
2021/08/11 02:04:16;;;;;;;4.22;3.10;;;19.50;64.40;;;;;;4902316;29;20044;-86
2021/08/11 02:06:44;;;;;;;4.32;3.22;;;19.50;64.50;;;;;;4917970;29;20038;-85
2021/08/11 02:09:12;;;;;;;4.47;3.13;;;19.40;64.40;;;;;;4902354;29;20036;-85
2021/08/11 02:11:41;;;;;;;4.35;3.20;;;19.40;64.50;;;;;;4902141;29;20075;-85
2021/08/11 02:14:09;;;;;;;4.88;3.38;;;19.40;64.50;;;;;;4917371;29;20028;-86
2021/08/11 02:16:41;;;;;;;3.95;2.80;;;19.40;64.50;;;;;;4902012;29;20050;-85
2021/08/11 02:19:09;;;;;;;3.85;3.00;;;19.40;64.60;;;;;;4902592;29;20087;-86
2021/08/11 02:21:35;;;;;;;4.07;3.20;;;19.40;64.50;;;;;;4901425;29;20488;-84
2021/08/11 02:24:03;;;;;;;3.95;3.20;;;19.30;64.50;;;;;;4886444;29;20095;-86
2021/08/11 02:26:38;;;;;;;4.93;3.40;;;19.30;64.50;;;;;;4902367;29;20123;-85
2021/08/11 02:29:40;;;;;;;5.03;3.08;;;19.30;64.60;;;;;;4901974;29;20122;-85
2021/08/11 02:32:24;;;;;;;4.72;3.20;;;19.20;64.80;;;;;;4917804;29;20028;-86
2021/08/11 02:35:06;;;;;;;4.18;3.20;;;19.20;64.60;;;;;;4917479;29;20083;-85
2021/08/11 02:37:42;;;;;;;3.78;2.92;;;19.20;64.70;;;;;;4901970;29;20032;-85
2021/08/11 02:40:30;;;;;;;3.67;2.85;;;19.10;64.70;;;;;;4901704;29;20080;-85
2021/08/11 02:43:22;;;;;;;4.45;3.13;;;19.10;64.70;;;;;;4917142;29;20024;-85
2021/08/11 02:45:57;;;;;;;4.03;2.83;;;19.10;64.80;;;;;;4908139;29;20107;-85
2021/08/11 02:48:26;;;;;;;3.50;2.67;;;19.10;64.80;;;;;;4933517;29;20028;-85
2021/08/11 02:50:52;;;;;;;4.28;3.00;;;19.00;64.80;;;;;;4901488;29;20036;-85
2021/08/11 02:53:22;;;;;;;5.05;3.50;;;19.00;64.80;;;;;;4901541;29;20040;-85
2021/08/11 02:55:48;;;;;;;3.88;3.05;;;19.00;64.90;;;;;;4902563;29;20484;-85
2021/08/11 02:58:17;;;;;;;3.80;2.83;;;18.90;64.90;;;;;;4929108;29;20039;-86
2021/08/11 03:00:43;;;;;;;3.83;3.05;;;18.90;64.90;;;;;;4918672;29;20028;-86
2021/08/11 03:03:10;;;;;;;4.30;3.03;;;18.90;64.90;;;;;;4901785;29;20479;-86
2021/08/11 03:05:37;;;;;;;4.47;3.20;;;18.90;65.00;;;;;;4901219;29;20047;-85
2021/08/11 03:08:06;;;;;;;4.50;3.30;;;18.90;65.00;;;;;;4917349;29;20025;-86
2021/08/11 03:10:33;;;;;;;4.60;3.20;;;18.80;64.90;;;;;;4917217;29;20039;-85
2021/08/11 03:12:59;;;;;;;4.70;3.10;;;18.80;65.00;;;;;;4901194;29;20087;-85
2021/08/11 03:15:27;;;;;;;4.32;3.42;;;18.80;65.10;;;;;;4917292;29;20078;-85
2021/08/11 03:17:54;;;;;;;4.32;3.10;;;18.80;65.10;;;;;;4917114;29;20124;-84
2021/08/11 03:20:21;;;;;;;4.22;3.22;;;18.80;65.10;;;;;;4916598;29;20028;-86
2021/08/11 03:22:47;;;;;;;3.90;3.10;;;18.80;65.10;;;;;;4901242;29;20048;-86
2021/08/11 03:25:13;;;;;;;4.15;3.05;;;18.70;65.10;;;;;;4916803;29;20091;-86
2021/08/11 03:27:40;;;;;;;4.40;3.25;;;18.70;65.10;;;;;;4917766;29;20075;-85
2021/08/11 03:30:09;;;;;;;4.30;3.30;;;18.70;65.10;;;;;;4901292;29;20024;-85
2021/08/11 03:32:37;;;;;;;3.55;2.78;;;18.70;65.20;;;;;;4902119;29;20089;-86
2021/08/11 03:35:04;;;;;;;4.35;3.22;;;18.70;65.20;;;;;;4917177;29;20533;-86
2021/08/11 03:37:30;;;;;;;4.57;3.38;;;18.60;65.10;;;;;;4901909;29;20036;-86
2021/08/11 03:39:58;;;;;;;4.53;3.20;;;18.60;65.20;;;;;;4916670;29;20389;-86
2021/08/11 03:42:26;;;;;;;4.35;3.05;;;18.60;65.20;;;;;;4916412;29;20053;-86
2021/08/11 03:44:52;;;;;;;4.68;3.10;;;18.50;65.20;;;;;;4916590;29;20076;-86
2021/08/11 03:47:19;;;;;;;5.13;3.72;;;18.50;65.20;;;;;;4916782;29;20041;-86
2021/08/11 03:49:49;;;;;;;4.57;3.38;;;18.50;65.20;;;;;;4904527;29;20474;-86
2021/08/11 03:52:15;;;;;;;4.28;3.30;;;18.50;65.30;;;;;;4920333;29;20028;-86
2021/08/11 03:54:41;;;;;;;4.38;3.00;;;18.50;65.30;;;;;;4904735;29;20080;-86
2021/08/11 03:57:07;;;;;;;4.57;3.42;;;18.50;65.30;;;;;;4904591;29;20039;-86
2021/08/11 03:59:33;;;;;;;3.90;2.92;;;18.40;65.30;;;;;;4920091;29;20032;-85
2021/08/11 04:01:59;;;;;;;4.40;3.35;;;18.40;65.30;;;;;;4919753;29;20028;-85
2021/08/11 04:04:24;;;;;;;4.43;3.30;;;18.40;65.40;;;;;;4920363;29;20115;-84
2021/08/11 04:06:50;;;;;;;4.47;3.28;;;18.40;65.40;;;;;;4921891;29;20036;-85
2021/08/11 04:09:16;;;;;;;3.80;2.97;;;18.40;65.40;;;;;;4904947;29;20028;-86
2021/08/11 04:11:42;;;;;;;4.35;3.08;;;18.40;65.40;;;;;;4920441;29;20124;-86
2021/08/11 04:14:07;;;;;;;4.05;3.00;;;18.30;65.40;;;;;;4904488;29;20115;-85
2021/08/11 04:16:33;;;;;;;4.25;3.10;;;18.30;65.50;;;;;;4920186;29;20040;-86
2021/08/11 04:18:59;;;;;;;4.65;3.38;;;18.30;65.50;;;;;;4904289;29;20481;-86
2021/08/11 04:21:24;;;;;;;3.97;3.05;;;18.30;65.50;;;;;;4920729;29;20039;-86
2021/08/11 04:23:50;;;;;;;4.75;3.28;;;18.30;65.60;;;;;;4920264;29;20072;-86
2021/08/11 04:26:16;;;;;;;3.80;3.13;;;18.30;65.60;;;;;;4920223;29;20456;-86
2021/08/11 04:28:43;;;;;;;4.55;3.58;;;18.20;65.60;;;;;;4920959;29;20099;-86
2021/08/11 04:31:08;;;;;;;3.90;3.03;;;18.20;65.70;;;;;;4920759;29;20127;-86
2021/08/11 04:33:34;;;;;;;4.20;2.83;;;18.20;65.70;;;;;;4919688;29;20059;-86
2021/08/11 04:36:00;;;;;;;5.05;3.60;;;18.20;65.70;;;;;;4904130;29;20099;-86
2021/08/11 04:38:26;;;;;;;4.22;3.15;;;18.20;65.70;;;;;;4919546;29;20064;-85
2021/08/11 04:40:51;;;;;;;4.38;3.35;;;18.20;65.80;;;;;;4920701;29;20036;-86
2021/08/11 04:43:17;;;;;;;4.53;3.20;;;18.20;65.80;;;;;;4920359;29;20043;-84
2021/08/11 04:45:43;;;;;;;4.47;3.17;;;18.20;65.90;;;;;;4903398;29;20099;-84
2021/08/11 04:48:09;;;;;;;4.43;3.15;;;18.10;65.90;;;;;;4919103;29;20032;-82
2021/08/11 04:50:36;;;;;;;4.53;3.05;;;18.10;65.90;;;;;;4903504;29;20131;-82
2021/08/11 04:53:02;;;;;;;4.72;3.58;;;18.10;66.00;;;;;;4919116;29;20063;-83
2021/08/11 04:55:28;;;;;;;5.07;3.58;;;18.10;66.10;;;;;;4903321;29;20048;-83
2021/08/11 04:57:54;;;;;;;5.13;3.42;;;18.10;66.10;;;;;;4920090;29;20036;-83
2021/08/11 05:00:20;;;;;;;5.07;3.60;;;18.10;66.10;;;;;;4918407;29;20055;-83
2021/08/11 05:02:47;;;;;;;5.18;3.65;;;18.10;66.20;;;;;;4919008;29;20042;-83
2021/08/11 05:05:12;;;;;;;4.88;3.65;;;18.10;66.20;;;;;;4918413;29;20052;-83
2021/08/11 05:07:38;;;;;;;4.93;3.78;;;18.10;66.30;;;;;;4903394;29;20400;-83
2021/08/11 05:10:05;;;;;;;5.07;3.88;;;18.10;66.30;;;;;;4902940;29;20036;-83
2021/08/11 05:12:31;;;;;;;5.15;3.80;;;18.10;66.40;;;;;;4903300;29;20115;-83
2021/08/11 05:14:57;;;;;;;5.20;3.70;;;18.10;66.40;;;;;;4919671;29;20107;-86
2021/08/11 05:17:23;;;;;;;5.03;3.50;;;18.00;66.40;;;;;;4903068;29;20032;-83
2021/08/11 05:19:50;;;;;;;4.45;3.55;;;18.10;66.50;;;;;;4919566;29;20481;-79
2021/08/11 05:22:17;;;;;;;5.07;3.78;;;18.10;66.50;;;;;;4919207;29;20063;-83
2021/08/11 05:24:44;;;;;;;5.00;3.65;;;18.10;66.60;;;;;;4918228;29;20434;-86
2021/08/11 05:27:10;;;;;;;5.13;3.55;;;18.10;66.60;;;;;;4918466;29;20039;-84
2021/08/11 05:29:35;;;;;;;5.00;3.47;;;18.10;66.70;;;;;;4918799;29;20107;-84
2021/08/11 05:32:01;;;;;;;4.47;3.40;;;18.10;66.70;;;;;;4903494;29;20032;-84
2021/08/11 05:34:27;;;;;;;4.85;3.47;;;18.10;66.70;;;;;;4902894;29;20047;-85
2021/08/11 05:36:53;;;;;;;4.75;3.50;;;18.10;66.70;;;;;;4902810;29;20039;-84
2021/08/11 05:39:18;;;;;;;4.10;3.20;;;18.10;66.70;;;;;;4902545;29;20040;-83
2021/08/11 05:41:44;;;;;;;4.30;3.38;;;18.10;66.80;;;;;;4902071;29;20032;-83
2021/08/11 05:44:10;;;;;;;4.63;3.45;;;18.00;66.80;;;;;;4917919;29;20115;-83
2021/08/11 05:46:36;;;;;;;4.88;3.25;;;18.10;66.80;;;;;;4918489;29;20106;-83
2021/08/11 05:49:03;;;;;;;4.65;3.40;;;18.10;66.90;;;;;;4918138;29;20052;-82
2021/08/11 05:51:33;;;;;;;4.25;3.10;;;18.10;66.90;;;;;;4919124;29;20024;-83
2021/08/11 05:54:02;;;;;;;4.05;3.25;;;18.10;66.90;;;;;;4919003;29;20043;-83
2021/08/11 05:56:28;;;;;;;3.83;3.08;;;18.10;67.00;;;;;;4920422;29;20059;-83
2021/08/11 05:58:54;;;;;;;4.70;3.25;;;18.10;67.00;;;;;;4919355;29;20044;-83
2021/08/11 06:01:21;;;;;;;4.25;3.28;;;18.10;67.00;;;;;;4901847;29;20047;-82
2021/08/11 06:03:46;;;;;;;4.57;3.70;;;18.10;67.10;;;;;;4901671;29;20064;-82
2021/08/11 06:06:16;;;;;;;4.05;3.38;;;18.10;67.10;;;;;;4903243;29;20048;-82
2021/08/11 06:08:42;;;;;;;4.53;3.42;;;18.10;67.10;;;;;;4901334;29;20432;-83
2021/08/11 06:11:07;;;;;;;4.97;3.58;;;18.10;67.10;;;;;;4901366;29;20039;-82
2021/08/11 06:13:33;;;;;;;4.72;3.70;;;18.20;67.20;;;;;;4902146;29;20448;-82
2021/08/11 06:15:59;;;;;;;4.55;3.40;;;18.20;67.20;;;;;;4901373;29;20501;-82
2021/08/11 06:18:25;;;;;;;5.25;3.70;;;18.20;67.20;;;;;;4901818;29;20175;-82
2021/08/11 06:20:52;;;;;;;4.88;3.45;;;18.20;67.20;;;;;;4919687;29;20645;-82
2021/08/11 06:23:19;;;;;;;5.68;3.53;;;18.20;67.20;;;;;;4903834;29;20056;-80
2021/08/11 06:25:45;;;;;;;4.90;3.58;;;18.20;67.20;;;;;;4917821;29;20139;-81
2021/08/11 06:28:11;;;;;;;5.30;3.53;;;18.20;67.20;;;;;;4933859;29;20028;-81
2021/08/11 06:30:36;;;;;;;5.90;4.18;;;18.20;67.30;;;;;;4917075;29;20091;-83
2021/08/11 06:33:03;;;;;;;5.05;3.70;;;18.20;67.20;;;;;;4903107;29;20040;-82
2021/08/11 06:35:29;;;;;;;4.95;3.58;;;18.20;67.30;;;;;;4917347;29;20040;-83
2021/08/11 06:37:54;;;;;;;5.00;3.63;;;18.20;67.30;;;;;;4933228;29;20131;-84
2021/08/11 06:40:21;;;;;;;4.75;3.30;;;18.20;67.30;;;;;;4917182;29;20114;-83
2021/08/11 06:42:51;;;;;;;4.70;3.55;;;18.20;67.30;;;;;;4917209;29;20025;-83
2021/08/11 06:45:21;;;;;;;5.10;3.70;;;18.30;67.30;;;;;;4902476;29;20497;-83
2021/08/11 06:47:48;;;;;;;4.20;3.42;;;18.30;67.30;;;;;;4886451;29;20039;-83
2021/08/11 06:50:15;;;;;;;4.78;3.60;;;18.30;67.30;;;;;;4901379;29;20031;-83
2021/08/11 06:52:41;;;;;;;5.00;3.78;;;18.30;67.30;;;;;;4901646;29;20120;-84
2021/08/11 06:55:15;;;;;;;4.82;3.35;;;18.30;67.30;;;;;;4902011;29;20063;-83
2021/08/11 06:57:41;;;;;;;5.55;3.50;;;18.30;67.30;;;;;;4932859;29;20032;-84
2021/08/11 07:00:09;;;;;;;4.55;3.33;;;18.30;67.20;;;;;;4901229;29;20034;-83
2021/08/11 07:02:34;;;;;;;5.03;3.33;;;18.30;67.30;;;;;;4917464;29;20028;-80
2021/08/11 07:05:01;;;;;;;4.97;3.40;;;18.30;67.30;;;;;;4916959;29;20044;-82
2021/08/11 07:07:27;;;;;;;4.68;3.20;;;18.40;67.40;;;;;;4916646;29;20119;-81
2021/08/11 07:09:54;;;;;;;5.28;3.45;;;18.40;67.30;;;;;;4917963;29;20055;-82
2021/08/11 07:12:20;;;;;;;4.72;3.47;;;18.40;67.40;;;;;;4917366;29;20036;-80
2021/08/11 07:14:47;;;;;;;5.70;3.88;;;18.40;67.40;;;;;;4900841;29;20420;-83
2021/08/11 07:17:13;;;;;;;5.18;3.90;;;18.40;67.40;;;;;;4901147;29;20032;-84
2021/08/11 07:19:40;;;;;;;3.92;3.00;;;18.40;67.40;;;;;;4916229;29;20393;-85
2021/08/11 07:22:07;;;;;;;4.55;3.47;;;18.50;67.50;;;;;;4916449;29;20070;-84
2021/08/11 07:24:35;;;;;;;4.60;3.33;;;18.50;67.40;;;;;;4920523;29;20457;-84
2021/08/11 07:27:02;;;;;;;4.40;3.70;;;18.50;67.40;;;;;;4905694;29;20043;-85
2021/08/11 07:29:27;;;;;;;4.50;3.03;;;18.50;67.40;;;;;;4920380;29;20032;-85
2021/08/11 07:31:53;;;;;;;4.97;3.58;;;18.50;67.40;;;;;;4904625;29;20038;-85
2021/08/11 07:34:19;;;;;;;4.80;3.20;;;18.50;67.40;;;;;;4904249;29;20032;-84
2021/08/11 07:36:45;;;;;;;4.50;3.30;;;18.60;67.40;;;;;;4904624;29;20028;-84
2021/08/11 07:39:12;;;;;;;5.10;3.33;;;18.60;67.50;;;;;;4904361;29;20051;-85
2021/08/11 07:41:38;;;;;;;4.97;3.55;;;18.60;67.50;;;;;;4936268;29;20029;-85
2021/08/11 07:44:04;;;;;;;4.80;3.45;;;18.60;67.50;;;;;;4904577;29;20024;-86
2021/08/11 07:46:30;;;;;;;4.00;3.20;;;18.70;67.50;;;;;;4936806;29;20066;-86
2021/08/11 07:48:57;;;;;;;5.03;3.20;;;18.70;67.50;;;;;;4905143;29;20427;-85
2021/08/11 07:51:23;;;;;;;4.25;3.15;;;18.70;67.50;;;;;;4904561;29;20044;-83
2021/08/11 07:53:49;;;;;;;4.53;3.50;;;18.70;67.50;;;;;;4919973;29;20036;-85
2021/08/11 07:56:15;;;;;;;4.63;2.95;;;18.80;67.60;;;;;;4904507;29;20429;-85
2021/08/11 07:58:40;;;;;;;5.07;3.58;;;18.80;67.60;;;;;;4920051;29;20133;-86
2021/08/11 08:01:06;;;;;;;4.93;3.30;;;18.80;67.50;;;;;;4904449;29;20039;-85
2021/08/11 08:03:32;;;;;;;5.38;3.92;;;18.90;67.50;;;;;;4919853;29;20080;-85
2021/08/11 08:05:58;;;;;;;4.88;3.70;;;18.90;67.50;;;;;;4903778;29;20493;-85
2021/08/11 08:08:24;;;;;;;4.35;3.30;;;18.90;67.40;;;;;;4903913;29;20028;-84
2021/08/11 08:10:52;;;;;;;5.32;3.22;;;19.00;67.40;;;;;;4920568;29;20044;-86
2021/08/11 08:13:20;;;;;;;4.47;3.15;;;19.00;67.30;;;;;;4919767;29;20028;-85
2021/08/11 08:15:50;;;;;;;4.78;3.38;;;19.10;67.20;;;;;;4904066;29;20076;-86
2021/08/11 08:18:25;;;;;;;4.63;3.10;;;19.10;67.20;;;;;;4903970;29;20028;-85
2021/08/11 08:20:53;;;;;;;4.63;2.88;;;19.10;67.00;;;;;;4920399;29;20548;-85
2021/08/11 08:23:19;;;;;;;3.85;3.05;;;19.20;67.00;;;;;;4903828;29;20123;-85
2021/08/11 08:25:46;;;;;;;4.40;3.00;;;19.30;66.90;;;;;;4903355;29;20032;-85
2021/08/11 08:28:11;;;;;;;4.88;3.40;;;19.30;67.50;;;;;;4919654;29;20369;-85
2021/08/11 08:30:38;;;;;;;4.50;3.20;;;19.40;66.80;;;;;;4903927;29;20036;-84
2021/08/11 08:33:04;;;;;;;5.45;3.00;;;19.40;66.60;;;;;;4919151;29;20402;-84
2021/08/11 08:35:29;;;;;;;4.30;3.05;;;19.50;66.50;;;;;;4902986;29;20192;-84
2021/08/11 08:37:55;;;;;;;4.18;2.83;;;19.60;66.50;;;;;;4903469;29;20119;-85
2021/08/11 08:40:28;;;;;;;4.13;2.92;;;19.60;66.40;;;;;;4920481;29;20044;-84
2021/08/11 08:42:54;;;;;;;3.90;2.90;;;19.70;66.40;;;;;;4904989;29;20449;-84
2021/08/11 08:45:19;;;;;;;4.05;2.95;;;19.80;66.30;;;;;;4903217;29;20043;-85
2021/08/11 08:47:46;;;;;;;4.45;3.00;;;19.80;66.10;;;;;;4919010;29;20028;-84
2021/08/11 08:50:12;;;;;;;4.88;3.30;;;19.90;66.10;;;;;;4918913;29;20060;-85
2021/08/11 08:52:39;;;;;;;4.30;3.25;;;20.00;66.10;;;;;;4918678;29;20044;-84
2021/08/11 08:55:06;;;;;;;4.20;3.08;;;20.10;66.10;;;;;;4887708;29;20060;-85
2021/08/11 08:57:35;;;;;;;5.00;3.30;;;20.20;66.00;;;;;;4918223;29;20119;-81
2021/08/11 09:00:03;;;;;;;3.95;2.92;;;20.20;65.90;;;;;;4904035;29;20047;-85
2021/08/11 09:02:29;;;;;;;5.90;3.50;;;20.30;65.80;;;;;;4918809;29;20032;-86
2021/08/11 09:04:54;;;;;;;4.70;3.55;;;20.40;65.80;;;;;;4902803;29;20507;-85
2021/08/11 09:07:21;;;;;;;4.70;3.38;;;20.50;65.80;;;;;;4918334;29;20028;-85
2021/08/11 09:09:47;;;;;;;4.70;3.53;;;20.50;65.70;;;;;;4918605;29;20032;-86
2021/08/11 09:12:17;;;;;;;4.97;3.38;;;20.60;65.70;;;;;;4902857;29;20036;-85
2021/08/11 09:14:47;;;;;;;5.35;3.47;;;20.70;65.70;;;;;;4902939;29;20036;-86
2021/08/11 09:17:33;;;;;;;4.70;3.25;;;20.70;65.60;;;;;;4934518;29;20032;-86
2021/08/11 09:20:00;;;;;;;5.30;3.90;;;20.80;65.60;;;;;;4934519;29;20038;-86
2021/08/11 09:22:26;;;;;;;5.50;3.65;;;20.80;65.50;;;;;;4902283;29;20481;-86
2021/08/11 09:25:06;;;;;;;4.70;3.50;;;20.90;65.50;;;;;;4934242;29;20044;-86
2021/08/11 09:27:33;;;;;;;5.10;3.53;;;21.00;65.60;;;;;;4921756;29;20035;-86
2021/08/11 09:30:08;;;;;;;5.00;3.40;;;21.00;65.40;;;;;;4918876;29;20115;-86
2021/08/11 09:32:57;;;;;;;4.68;3.40;;;21.10;65.50;;;;;;4902979;29;20091;-86
2021/08/11 09:35:29;;;;;;;5.38;3.63;;;21.10;65.50;;;;;;4918533;29;20091;-84
2021/08/11 09:38:00;;;;;;;4.57;3.30;;;21.20;65.40;;;;;;4919092;29;20470;-85
2021/08/11 09:40:29;;;;;;;4.68;3.25;;;21.30;65.50;;;;;;4918006;29;20062;-81
2021/08/11 09:43:17;;;;;;;5.47;3.72;;;21.30;65.40;;;;;;4901852;29;20024;-82
2021/08/11 09:45:49;;;;;;;4.55;3.20;;;21.40;65.50;;;;;;4916371;29;20040;-81
2021/08/11 09:48:17;;;;;;;4.45;3.08;;;21.40;65.40;;;;;;4917421;29;20073;-81
2021/08/11 09:50:47;;;;;;;5.60;3.50;;;21.50;65.50;;;;;;4916936;29;20079;-81
2021/08/11 09:53:41;;;;;;;5.18;3.50;;;21.60;65.50;;;;;;4933562;29;20426;-78
2021/08/11 09:56:11;;;;;;;4.65;3.22;;;21.70;65.50;;;;;;4901563;29;20114;-80
2021/08/11 09:58:42;;;;;;;4.78;3.30;;;21.70;65.30;;;;;;4932952;29;20102;-82
2021/08/11 10:01:10;;;;;;;4.28;3.13;;;21.80;65.40;;;;;;4917194;29;20083;-80
2021/08/11 10:03:59;;;;;;;3.78;2.88;;;21.80;65.30;;;;;;4901014;29;20086;-81
2021/08/11 10:06:31;;;;;;;4.57;3.08;;;21.90;65.50;;;;;;4918095;29;20182;-81
2021/08/11 10:09:30;;;;;;;4.35;3.05;;;22.10;65.40;;;;;;4917385;29;20457;-79
2021/08/11 10:11:58;;;;;;;4.88;3.00;;;22.10;65.60;;;;;;4906220;29;20052;-80
2021/08/11 10:14:26;;;;;;;5.25;3.15;;;22.20;65.40;;;;;;4916480;29;20024;-82
2021/08/11 10:16:53;;;;;;;4.85;3.33;;;22.30;65.50;;;;;;4916872;29;20033;-80
2021/08/11 10:19:24;;;;;;;4.13;2.72;;;22.40;65.60;;;;;;4916923;29;20083;-81
2021/08/11 10:22:21;;;;;;;4.53;3.10;;;22.50;65.60;;;;;;4901723;29;20390;-80
2021/08/11 10:24:52;;;;;;;4.50;2.63;;;22.50;65.70;;;;;;4913920;29;20465;-80
2021/08/11 10:27:18;;;;;;;5.05;2.97;;;22.70;65.60;;;;;;4916365;29;20040;-80
2021/08/11 10:29:47;;;;;;;4.75;3.03;;;22.70;65.50;;;;;;4900803;29;20492;-81
2021/08/11 10:32:14;;;;;;;3.92;2.75;;;22.80;65.60;;;;;;4900531;29;20045;-81
2021/08/11 10:34:47;;;;;;;3.83;2.67;;;22.90;65.60;;;;;;4916036;29;20065;-82
2021/08/11 10:37:13;;;;;;;4.65;2.80;;;23.00;65.70;;;;;;4916097;29;20032;-80
2021/08/11 10:39:40;;;;;;;4.18;2.92;;;23.10;65.70;;;;;;4900573;29;20469;-81
2021/08/11 10:42:12;;;;;;;3.78;2.72;;;23.20;65.80;;;;;;4900695;29;20123;-82
2021/08/11 10:44:38;;;;;;;3.78;2.72;;;23.30;65.90;;;;;;4917495;29;20046;-82
2021/08/11 10:47:07;;;;;;;3.72;2.67;;;23.40;65.80;;;;;;4916350;29;20032;-80
2021/08/11 10:50:08;;;;;;;3.83;2.65;;;23.50;65.80;;;;;;4916075;29;20493;-79
2021/08/11 10:52:34;;;;;;;3.42;2.45;;;23.60;65.90;;;;;;4916338;29;20028;-79
2021/08/11 10:55:02;;;;;;;3.78;2.53;;;23.70;65.60;;;;;;4916010;29;20043;-80
2021/08/11 10:57:34;;;;;;;3.85;2.83;;;23.80;65.50;;;;;;4918619;29;20035;-81
2021/08/11 11:00:01;;;;;;;3.72;2.38;;;23.90;65.40;;;;;;4920685;29;20175;-80
2021/08/11 11:02:41;;;;;;;3.08;2.35;;;24.00;65.20;;;;;;4919934;29;20118;-80
2021/08/11 11:05:08;;;;;;;3.10;2.50;;;24.10;65.80;;;;;;4920537;29;20088;-80
2021/08/11 11:07:34;;;;;;;3.70;2.40;;;24.10;64.80;;;;;;4904107;29;20039;-80
2021/08/11 11:10:23;;;;;;;2.83;2.28;;;24.20;64.70;;;;;;4919803;29;20123;-80
2021/08/11 11:12:49;;;;;;;2.70;2.00;;;24.30;64.80;;;;;;4904022;29;20154;-80
2021/08/11 11:15:15;;;;;;;2.67;2.10;;;24.40;64.60;;;;;;4903959;29;20477;-80
2021/08/11 11:18:19;;;;;;;2.80;2.00;;;24.40;64.60;;;;;;4904253;29;20036;-81
2021/08/11 11:20:45;;;;;;;2.70;2.03;;;24.50;64.80;;;;;;4909513;29;20075;-80
2021/08/11 11:23:11;;;;;;;3.13;2.13;;;24.60;64.60;;;;;;4920178;29;20092;-81
2021/08/11 11:25:59;;;;;;;2.70;1.95;;;24.60;64.50;;;;;;4904012;29;20032;-83
2021/08/11 11:28:51;;;;;;;2.45;1.88;;;24.60;64.60;;;;;;4919891;29;20028;-81
2021/08/11 11:31:48;;;;;;;3.15;2.17;;;24.70;64.60;;;;;;4904019;29;20036;-82
2021/08/11 11:34:28;;;;;;;2.67;1.90;;;24.70;64.50;;;;;;4903730;29;20032;-82
2021/08/11 11:36:55;;;;;;;2.40;1.80;;;24.80;64.50;;;;;;4919262;29;20030;-84
2021/08/11 11:39:24;;;;;;;3.10;1.95;;;24.80;64.50;;;;;;4903717;29;20118;-84
2021/08/11 11:42:14;;;;;;;2.45;1.90;;;24.90;64.60;;;;;;4905100;29;20032;-82
2021/08/11 11:45:00;;;;;;;2.72;1.95;;;24.90;65.00;;;;;;4903829;29;20044;-82
2021/08/11 11:47:36;;;;;;;2.95;1.90;;;24.90;65.00;;;;;;4904723;29;20544;-84
2021/08/11 11:50:20;;;;;;;3.00;1.98;;;25.00;65.10;;;;;;4920776;29;20067;-83
2021/08/11 11:52:56;;;;;;;2.53;1.77;;;25.00;65.20;;;;;;4903347;29;20028;-83
2021/08/11 11:55:29;;;;;;;2.33;1.70;;;25.10;65.10;;;;;;4920559;29;20113;-82
2021/08/11 11:57:57;;;;;;;2.20;1.88;;;25.10;65.20;;;;;;4903639;29;20126;-83
2021/08/11 12:00:24;;;;;;;2.38;1.90;;;25.10;65.30;;;;;;4903313;29;20020;-82
2021/08/11 12:02:53;;;;;;;2.40;1.77;;;25.10;65.30;;;;;;4919181;29;20044;-82
2021/08/11 12:05:20;;;;;;;3.42;2.38;;;25.20;65.50;;;;;;4903244;29;20059;-83
2021/08/11 12:07:46;;;;;;;2.63;2.00;;;25.20;65.40;;;;;;4918503;29;20036;-82
2021/08/11 12:10:30;;;;;;;2.67;1.90;;;25.30;65.50;;;;;;4902684;29;20465;-82
2021/08/11 12:13:02;;;;;;;2.50;1.90;;;25.30;65.60;;;;;;4918797;29;20462;-82
2021/08/11 12:15:30;;;;;;;2.83;2.22;;;25.30;65.40;;;;;;4920463;29;20122;-83
2021/08/11 12:17:57;;;;;;;2.40;1.90;;;25.40;65.40;;;;;;4903488;29;20032;-82
2021/08/11 12:20:36;;;;;;;3.00;2.30;;;25.40;65.30;;;;;;4918713;29;20076;-82
2021/08/11 12:23:17;;;;;;;2.38;1.80;;;25.40;65.10;;;;;;4903030;29;20083;-82
2021/08/11 12:25:43;;;;;;;2.72;2.08;;;25.40;65.00;;;;;;4918825;29;20091;-82
2021/08/11 12:28:13;;;;;;;2.75;1.90;;;25.50;65.10;;;;;;4902956;29;20040;-82
2021/08/11 12:30:50;;;;;;;2.72;1.92;;;25.50;65.20;;;;;;4903055;29;20032;-83
2021/08/11 12:33:18;;;;;;;3.13;2.15;;;25.50;64.90;;;;;;4918924;29;20472;-84
2021/08/11 12:35:45;;;;;;;2.47;2.00;;;25.60;64.90;;;;;;4919007;29;20032;-83
2021/08/11 12:38:11;;;;;;;2.38;1.90;;;25.60;64.80;;;;;;4902959;29;20036;-83
2021/08/11 12:40:40;;;;;;;2.40;1.90;;;25.60;64.70;;;;;;4918404;29;20115;-83
2021/08/11 12:43:06;;;;;;;2.65;1.92;;;25.60;64.60;;;;;;4918592;29;20038;-84
2021/08/11 12:45:50;;;;;;;2.53;1.90;;;25.60;64.60;;;;;;4918283;29;20485;-83
2021/08/11 12:48:29;;;;;;;2.73;1.97;;;25.70;64.70;;;;;;4919107;29;20039;-83
2021/08/11 12:50:57;;;;;;;2.35;1.73;;;25.70;64.50;;;;;;4903231;29;20379;-84
2021/08/11 12:53:44;;;;;;;2.40;1.85;;;25.70;64.40;;;;;;4902665;29;20473;-85
2021/08/11 12:56:16;;;;;;;2.53;1.90;;;25.70;64.30;;;;;;4902441;29;20127;-83
2021/08/11 12:59:05;;;;;;;3.13;2.15;;;25.80;64.20;;;;;;4902334;29;20040;-83
2021/08/11 13:01:34;;;;;;;2.67;2.20;;;25.70;64.20;;;;;;4898902;29;20044;-84